Time;durP1;ratioP1;P1;durP2;ratioP2;P2;SDS_P1;SDS_P2;PMS_P1;PMS_P2;Temp;Humidity;BMP_temperature;BMP_pressure;BME280_temperature;BME280_humidity;BME280_pressure;Samples;Min_cycle;Max_cycle;Signal;HPM_P1;HPM_P2
2022/01/01 00:00:38;;;;;;;12.00;5.78;;;20.80;62.70;;;;;;4992581;28;20046;-67
2022/01/01 00:03:04;;;;;;;7.93;5.47;;;20.80;62.70;;;;;;4993864;28;20046;-67
2022/01/01 00:05:29;;;;;;;7.95;5.47;;;20.70;62.60;;;;;;4992853;28;20046;-70
2022/01/01 00:07:57;;;;;;;9.48;5.53;;;20.80;62.70;;;;;;4994284;28;20058;-69
2022/01/01 00:10:22;;;;;;;9.02;5.78;;;20.70;62.70;;;;;;4992749;28;20034;-68
2022/01/01 00:12:48;;;;;;;9.10;5.65;;;20.70;62.70;;;;;;4992262;28;20054;-67
2022/01/01 00:15:14;;;;;;;8.85;5.53;;;20.70;62.70;;;;;;4993796;28;20047;-66
2022/01/01 00:17:40;;;;;;;8.27;5.50;;;20.70;62.50;;;;;;4992476;28;20049;-67
2022/01/01 00:20:09;;;;;;;10.43;6.13;;;20.70;62.40;;;;;;4994487;28;20038;-67
2022/01/01 00:22:35;;;;;;;8.05;5.43;;;20.70;62.40;;;;;;4995029;28;20049;-67
2022/01/01 00:25:01;;;;;;;11.50;6.22;;;20.70;62.30;;;;;;4993575;28;20077;-67
2022/01/01 00:27:26;;;;;;;9.48;6.25;;;20.70;62.30;;;;;;4994672;28;20125;-67
2022/01/01 00:29:52;;;;;;;10.50;6.00;;;20.70;62.30;;;;;;4994702;28;20181;-67
2022/01/01 00:32:17;;;;;;;11.20;5.93;;;20.60;62.20;;;;;;4994731;28;20050;-66
2022/01/01 00:34:43;;;;;;;11.43;6.10;;;20.60;62.20;;;;;;4992576;28;20378;-67
2022/01/01 00:37:08;;;;;;;9.60;5.80;;;20.60;62.20;;;;;;4993652;28;20429;-66
2022/01/01 00:39:34;;;;;;;8.70;5.88;;;20.60;62.20;;;;;;4994121;28;20486;-67
2022/01/01 00:41:59;;;;;;;10.00;6.35;;;20.60;62.30;;;;;;4992692;28;20042;-66
2022/01/01 00:44:25;;;;;;;8.13;6.03;;;20.50;62.20;;;;;;4992777;28;20054;-67
2022/01/01 00:46:51;;;;;;;10.52;5.72;;;20.60;62.20;;;;;;4993967;28;20043;-67
2022/01/01 00:49:16;;;;;;;10.13;6.20;;;20.60;62.20;;;;;;4993242;28;20056;-67
2022/01/01 00:51:42;;;;;;;11.32;6.18;;;20.50;62.10;;;;;;4993188;28;20042;-67
2022/01/01 00:54:08;;;;;;;10.30;6.25;;;20.50;62.20;;;;;;4991976;28;20156;-67
2022/01/01 00:56:33;;;;;;;9.25;6.18;;;20.50;62.20;;;;;;4994638;28;20441;-66
2022/01/01 00:58:59;;;;;;;10.38;6.63;;;20.50;62.20;;;;;;4994249;28;20049;-66
2022/01/01 01:01:24;;;;;;;9.18;6.38;;;20.50;62.10;;;;;;4992362;28;20078;-66
2022/01/01 01:03:50;;;;;;;9.43;6.03;;;20.50;62.10;;;;;;4993079;28;20045;-67
2022/01/01 01:06:15;;;;;;;9.32;6.43;;;20.50;62.10;;;;;;4993179;28;20429;-67
2022/01/01 01:08:41;;;;;;;10.05;6.70;;;20.50;62.10;;;;;;4993139;28;20409;-67
2022/01/01 01:11:08;;;;;;;10.55;6.25;;;20.50;62.10;;;;;;4994553;28;20100;-67
2022/01/01 01:13:34;;;;;;;11.18;6.88;;;20.40;62.00;;;;;;4993010;28;20092;-67
2022/01/01 01:16:00;;;;;;;8.63;6.50;;;20.40;62.00;;;;;;4992058;28;20738;-67
2022/01/01 01:18:26;;;;;;;10.35;6.78;;;20.40;61.90;;;;;;4993573;28;20498;-67
2022/01/01 01:20:51;;;;;;;11.65;6.53;;;20.40;61.90;;;;;;4993807;28;20050;-67
2022/01/01 01:23:17;;;;;;;9.27;6.45;;;20.40;61.90;;;;;;4993313;28;20044;-67
2022/01/01 01:25:42;;;;;;;9.27;6.57;;;20.40;61.90;;;;;;4992406;28;20483;-67
2022/01/01 01:28:08;;;;;;;9.85;7.00;;;20.40;61.80;;;;;;4993590;28;20046;-67
2022/01/01 01:30:35;;;;;;;11.05;7.03;;;20.40;61.90;;;;;;4991046;28;20049;-67
2022/01/01 01:33:00;;;;;;;9.05;5.97;;;20.40;61.90;;;;;;4993747;28;20160;-67
2022/01/01 01:35:26;;;;;;;11.27;7.10;;;20.40;61.80;;;;;;4993962;28;20129;-67
2022/01/01 01:37:51;;;;;;;12.50;7.13;;;20.40;61.80;;;;;;4991413;28;20105;-67
2022/01/01 01:40:17;;;;;;;11.52;7.03;;;20.40;61.80;;;;;;5008434;28;20050;-67
2022/01/01 01:42:44;;;;;;;12.48;7.00;;;20.40;61.80;;;;;;5008760;28;20050;-67
2022/01/01 01:45:15;;;;;;;10.82;7.00;;;20.30;61.70;;;;;;4992083;28;20042;-67
2022/01/01 01:47:41;;;;;;;13.23;7.50;;;20.30;61.70;;;;;;5007740;28;20038;-67
2022/01/01 01:50:08;;;;;;;11.45;7.35;;;20.30;61.70;;;;;;4991664;28;20101;-67
2022/01/01 01:52:36;;;;;;;9.73;7.10;;;20.30;61.60;;;;;;4992945;28;20034;-67
2022/01/01 01:55:04;;;;;;;10.25;7.03;;;20.30;61.60;;;;;;4975837;28;20061;-67
2022/01/01 01:57:29;;;;;;;9.50;6.88;;;20.30;61.70;;;;;;4991706;28;20105;-67
2022/01/01 01:59:55;;;;;;;10.77;6.68;;;20.30;61.70;;;;;;5007636;28;20062;-67
2022/01/01 02:02:20;;;;;;;11.60;7.20;;;20.30;61.70;;;;;;4993024;28;20050;-67
2022/01/01 02:04:46;;;;;;;9.18;6.80;;;20.30;61.60;;;;;;4991275;28;20056;-67
2022/01/01 02:07:12;;;;;;;10.02;7.25;;;20.30;61.60;;;;;;4991897;28;20054;-67
2022/01/01 02:09:38;;;;;;;12.90;7.22;;;20.30;61.60;;;;;;4992454;28;20498;-67
2022/01/01 02:12:04;;;;;;;13.50;7.57;;;20.30;61.60;;;;;;4991445;28;20493;-67
2022/01/01 02:19:25;;;;;;;11.15;7.45;;;20.20;61.50;;;;;;4991128;28;20057;-67
2022/01/01 02:21:55;;;;;;;11.60;7.40;;;20.20;61.50;;;;;;4992075;28;20194;-67
2022/01/01 02:24:21;;;;;;;13.07;7.97;;;20.20;61.50;;;;;;4991092;28;20073;-67
2022/01/01 02:26:47;;;;;;;11.68;7.43;;;20.20;61.50;;;;;;4991827;28;20389;-65
2022/01/01 02:29:12;;;;;;;10.65;7.18;;;20.20;61.60;;;;;;4991339;28;20043;-66
2022/01/01 02:31:38;;;;;;;12.65;8.60;;;20.20;61.50;;;;;;4993301;28;20276;-66
2022/01/01 02:34:05;;;;;;;10.02;7.38;;;20.20;61.50;;;;;;4991896;28;20042;-66
2022/01/01 02:36:32;;;;;;;11.50;8.13;;;20.20;61.50;;;;;;4991705;28;20073;-66
2022/01/01 02:38:57;;;;;;;12.07;7.55;;;20.20;61.50;;;;;;4992389;28;20046;-66
2022/01/01 02:41:23;;;;;;;12.82;7.97;;;20.20;61.40;;;;;;4994297;28;20130;-66
2022/01/01 02:43:48;;;;;;;13.45;7.43;;;20.20;61.40;;;;;;4996581;28;20046;-66
2022/01/01 02:46:14;;;;;;;10.88;7.80;;;20.20;61.40;;;;;;5011759;28;20383;-65
2022/01/01 02:48:39;;;;;;;11.45;7.97;;;20.20;61.40;;;;;;4996337;28;20046;-66
2022/01/01 02:51:05;;;;;;;13.00;7.70;;;20.20;61.40;;;;;;5011930;28;20514;-66
2022/01/01 02:53:30;;;;;;;13.02;7.88;;;20.20;61.40;;;;;;4995620;28;20509;-66
2022/01/01 02:55:56;;;;;;;11.90;7.93;;;20.20;61.30;;;;;;4996379;28;20105;-67
2022/01/01 02:58:21;;;;;;;12.40;7.90;;;20.20;61.30;;;;;;4996798;28;20047;-66
2022/01/01 03:00:47;;;;;;;13.00;7.95;;;20.30;61.30;;;;;;5005452;28;20043;-65
2022/01/01 03:03:12;;;;;;;11.90;7.97;;;20.20;61.20;;;;;;4977065;28;20058;-65
2022/01/01 03:05:38;;;;;;;13.52;8.25;;;20.20;61.20;;;;;;4990663;28;20141;-66
2022/01/01 03:08:04;;;;;;;12.00;8.40;;;20.30;61.20;;;;;;4994015;28;20058;-65
2022/01/01 03:10:30;;;;;;;12.73;8.30;;;20.30;61.20;;;;;;5011512;28;20134;-66
2022/01/01 03:12:55;;;;;;;12.82;8.40;;;20.30;61.10;;;;;;4994706;28;20125;-66
2022/01/01 03:15:21;;;;;;;10.10;7.45;;;20.30;61.10;;;;;;4995329;28;20500;-66
2022/01/01 03:17:46;;;;;;;13.77;8.45;;;20.30;61.10;;;;;;5011147;28;20042;-66
2022/01/01 03:20:12;;;;;;;12.48;7.78;;;20.30;61.10;;;;;;5011375;28;20038;-66
2022/01/01 03:22:37;;;;;;;12.65;8.23;;;20.30;61.10;;;;;;4995599;28;20081;-66
2022/01/01 03:25:03;;;;;;;12.25;7.95;;;20.30;61.10;;;;;;4995548;28;20047;-66
2022/01/01 03:27:29;;;;;;;13.73;8.85;;;20.30;61.10;;;;;;4995183;28;20096;-66
2022/01/01 03:29:54;;;;;;;13.38;9.15;;;20.30;61.10;;;;;;5010410;28;20077;-67
2022/01/01 03:32:20;;;;;;;12.45;8.40;;;20.30;61.00;;;;;;4996141;28;20058;-66
2022/01/01 03:34:45;;;;;;;13.30;9.43;;;20.40;61.20;;;;;;4994300;28;20038;-67
2022/01/01 03:37:11;;;;;;;10.30;8.25;;;20.40;61.10;;;;;;4994130;28;20039;-66
2022/01/01 03:39:36;;;;;;;14.10;9.05;;;20.40;61.10;;;;;;4996032;28;20038;-66
2022/01/01 03:42:02;;;;;;;13.02;8.25;;;20.40;61.10;;;;;;4995848;28;20079;-66
2022/01/01 03:44:27;;;;;;;12.98;8.82;;;20.40;61.00;;;;;;5010190;28;20058;-67
2022/01/01 03:47:00;;;;;;;12.35;8.55;;;20.40;61.00;;;;;;4995735;28;20038;-66
2022/01/01 03:49:25;;;;;;;14.27;8.73;;;20.40;61.00;;;;;;4995802;28;20466;-66
2022/01/01 03:51:51;;;;;;;13.88;9.07;;;20.40;61.00;;;;;;4994355;28;20130;-66
2022/01/01 03:54:16;;;;;;;12.50;8.65;;;20.40;61.00;;;;;;4993570;28;20053;-66
2022/01/01 03:56:42;;;;;;;13.82;9.07;;;20.40;61.00;;;;;;4993509;28;20046;-67
2022/01/01 03:59:08;;;;;;;13.90;8.98;;;20.40;61.00;;;;;;4995579;28;20049;-66
2022/01/01 04:01:33;;;;;;;13.52;8.68;;;20.40;61.00;;;;;;4994484;28;20553;-66
2022/01/01 04:03:59;;;;;;;15.27;9.05;;;20.50;60.90;;;;;;5009819;28;20050;-66
2022/01/01 04:06:24;;;;;;;13.90;8.68;;;20.40;60.90;;;;;;4994060;28;20063;-66
2022/01/01 04:08:50;;;;;;;13.90;9.30;;;20.50;61.00;;;;;;4994929;28;20057;-66
2022/01/01 04:11:15;;;;;;;14.43;9.23;;;20.40;61.40;;;;;;4993424;28;20034;-67
2022/01/01 04:13:41;;;;;;;13.77;9.45;;;20.40;60.90;;;;;;4995226;28;20046;-66
2022/01/01 04:16:07;;;;;;;13.20;9.02;;;20.50;60.90;;;;;;4994977;28;20506;-66
2022/01/01 04:18:38;;;;;;;13.63;8.70;;;20.50;60.90;;;;;;4994589;28;20104;-66
2022/01/01 04:21:10;;;;;;;12.27;9.00;;;20.50;60.90;;;;;;5010158;28;20107;-66
2022/01/01 04:23:36;;;;;;;14.30;9.18;;;20.50;60.90;;;;;;4995058;28;20046;-67
2022/01/01 04:26:02;;;;;;;13.20;9.20;;;20.50;60.90;;;;;;4994335;28;20046;-66
2022/01/01 04:28:28;;;;;;;15.35;9.32;;;20.40;61.50;;;;;;4995158;28;20394;-66
2022/01/01 04:30:53;;;;;;;11.93;9.18;;;20.50;60.90;;;;;;4994889;28;20042;-66
2022/01/01 04:33:19;;;;;;;16.30;9.32;;;20.40;60.80;;;;;;4994562;28;20050;-67
2022/01/01 04:35:44;;;;;;;12.63;8.88;;;20.50;60.90;;;;;;4994580;28;20042;-67
2022/01/01 04:38:24;;;;;;;12.55;8.95;;;20.50;60.80;;;;;;4993247;28;20042;-66
2022/01/01 04:40:50;;;;;;;14.57;9.88;;;20.40;60.80;;;;;;4993741;28;20442;-66
2022/01/01 04:43:15;;;;;;;15.05;9.35;;;20.40;60.70;;;;;;4994801;28;20042;-66
2022/01/01 04:45:41;;;;;;;13.52;9.30;;;20.40;60.80;;;;;;4994507;28;20086;-66
2022/01/01 04:48:06;;;;;;;14.00;9.48;;;20.40;60.80;;;;;;4994156;28;20068;-66
2022/01/01 04:50:32;;;;;;;15.25;9.80;;;20.40;60.80;;;;;;5009863;28;20053;-66
2022/01/01 04:52:58;;;;;;;15.05;9.90;;;20.40;60.80;;;;;;4992490;28;20050;-66
2022/01/01 04:55:24;;;;;;;13.02;9.13;;;20.40;60.80;;;;;;4994567;28;20053;-66
2022/01/01 04:57:50;;;;;;;16.02;9.88;;;20.40;60.70;;;;;;4994166;28;20050;-66
2022/01/01 05:00:15;;;;;;;15.80;10.13;;;20.40;60.80;;;;;;4993206;28;20044;-66
2022/01/01 05:02:41;;;;;;;13.43;9.32;;;20.40;60.80;;;;;;4994147;28;20046;-66
2022/01/01 05:05:07;;;;;;;13.98;9.38;;;20.40;60.80;;;;;;4992314;28;20047;-66
2022/01/01 05:07:32;;;;;;;13.20;9.63;;;20.40;60.80;;;;;;5007938;28;20062;-66
2022/01/01 05:09:59;;;;;;;15.15;10.20;;;20.40;61.30;;;;;;4994223;28;20054;-67
2022/01/01 05:12:25;;;;;;;14.90;10.00;;;20.40;60.80;;;;;;4993197;28;20054;-66
2022/01/01 05:14:50;;;;;;;14.68;9.90;;;20.40;60.70;;;;;;5007967;28;20045;-66
2022/01/01 05:17:17;;;;;;;14.20;9.98;;;20.40;60.70;;;;;;4992923;28;20088;-66
2022/01/01 05:19:43;;;;;;;13.43;9.20;;;20.40;60.70;;;;;;4992658;28;20061;-65
2022/01/01 05:22:08;;;;;;;13.38;9.43;;;20.40;60.70;;;;;;4993578;28;20050;-66
2022/01/01 05:24:34;;;;;;;14.80;9.85;;;20.40;60.70;;;;;;4993917;28;20053;-66
2022/01/01 05:26:59;;;;;;;13.50;9.68;;;20.40;60.70;;;;;;4993994;28;20585;-66
2022/01/01 05:29:25;;;;;;;16.02;10.15;;;20.40;60.70;;;;;;4992091;28;20062;-66
2022/01/01 05:31:51;;;;;;;13.65;9.50;;;20.50;60.80;;;;;;5008443;28;20049;-66
2022/01/01 05:34:16;;;;;;;15.57;9.85;;;20.50;60.80;;;;;;4993287;28;20079;-66
2022/01/01 05:36:41;;;;;;;13.65;9.57;;;20.40;60.70;;;;;;5008060;28;20061;-66
2022/01/01 05:39:08;;;;;;;15.25;9.57;;;20.50;60.80;;;;;;4993920;28;20070;-66
2022/01/01 05:41:34;;;;;;;14.40;9.63;;;20.50;60.80;;;;;;4993696;28;20108;-66
2022/01/01 05:43:59;;;;;;;14.00;9.57;;;20.50;60.70;;;;;;4991748;28;20449;-66
2022/01/01 05:46:25;;;;;;;12.30;9.60;;;20.50;60.70;;;;;;4993598;28;20077;-66
2022/01/01 05:48:50;;;;;;;13.80;9.75;;;20.50;60.70;;;;;;4993331;28;20042;-66
2022/01/01 05:51:16;;;;;;;15.20;9.90;;;20.50;60.60;;;;;;4992684;28;20081;-66
2022/01/01 05:53:41;;;;;;;14.48;9.82;;;20.50;60.60;;;;;;4993223;28;20042;-66
2022/01/01 05:56:07;;;;;;;16.35;10.05;;;20.50;60.60;;;;;;4992398;28;20093;-66
2022/01/01 05:58:33;;;;;;;13.85;10.38;;;20.50;60.60;;;;;;4992540;28;20038;-66
2022/01/01 06:00:58;;;;;;;17.08;10.80;;;20.50;60.50;;;;;;5008340;28;20046;-66
2022/01/01 06:03:24;;;;;;;14.95;9.85;;;20.50;60.50;;;;;;4991689;28;20101;-66
2022/01/01 06:05:51;;;;;;;14.95;9.90;;;20.50;60.60;;;;;;4991696;28;20186;-66
2022/01/01 06:08:18;;;;;;;13.13;8.90;;;20.50;60.60;;;;;;4992985;28;20062;-66
2022/01/01 06:10:43;;;;;;;16.60;10.60;;;20.50;60.50;;;;;;4992153;28;20096;-67
2022/01/01 06:13:09;;;;;;;15.27;9.50;;;20.50;60.50;;;;;;5008302;28;20050;-66
2022/01/01 06:15:34;;;;;;;14.13;9.32;;;20.50;60.50;;;;;;4992552;28;20042;-66
2022/01/01 06:18:00;;;;;;;15.18;10.52;;;20.50;60.50;;;;;;4992414;28;20057;-66
2022/01/01 06:20:25;;;;;;;13.90;9.77;;;20.60;60.50;;;;;;4992972;28;20097;-66
2022/01/01 06:22:51;;;;;;;13.95;9.65;;;20.60;60.50;;;;;;5008188;28;20129;-66
2022/01/01 06:25:17;;;;;;;18.05;10.07;;;20.60;60.40;;;;;;4992244;28;20410;-66
2022/01/01 06:27:42;;;;;;;12.90;9.25;;;20.60;60.40;;;;;;4993267;28;20053;-66
2022/01/01 06:30:08;;;;;;;13.80;9.98;;;20.60;60.50;;;;;;4993434;28;20394;-66
2022/01/01 06:32:34;;;;;;;14.05;10.18;;;20.60;60.50;;;;;;4992344;28;20486;-66
2022/01/01 06:34:59;;;;;;;14.02;9.80;;;20.60;60.50;;;;;;4992699;28;20073;-67
2022/01/01 06:37:25;;;;;;;15.55;9.73;;;20.60;60.40;;;;;;4993309;28;20039;-67
2022/01/01 06:39:51;;;;;;;14.68;10.07;;;20.60;60.40;;;;;;4991166;28;20042;-66
2022/01/01 06:42:16;;;;;;;14.25;9.52;;;20.60;60.40;;;;;;5008359;28;20113;-66
2022/01/01 06:44:42;;;;;;;14.55;9.20;;;20.60;60.30;;;;;;4992723;28;20517;-68
2022/01/01 06:47:08;;;;;;;14.23;9.23;;;20.60;60.30;;;;;;4992344;28;20042;-66
2022/01/01 06:49:34;;;;;;;14.55;9.65;;;20.60;60.40;;;;;;4992981;28;20125;-66
2022/01/01 06:51:59;;;;;;;14.38;9.73;;;20.70;60.40;;;;;;4992917;28;20471;-66
2022/01/01 06:54:25;;;;;;;13.65;9.15;;;20.70;60.40;;;;;;4992213;28;20145;-66
2022/01/01 06:56:50;;;;;;;14.82;9.68;;;20.70;60.40;;;;;;5007609;28;20561;-66
2022/01/01 06:59:16;;;;;;;15.02;9.85;;;20.70;60.30;;;;;;5008163;28;20124;-65
2022/01/01 07:01:41;;;;;;;15.35;9.48;;;20.70;60.30;;;;;;4990638;28;20509;-65
2022/01/01 07:04:07;;;;;;;15.60;9.13;;;20.70;60.30;;;;;;4991658;28;20128;-66
2022/01/01 07:06:34;;;;;;;15.50;9.30;;;20.70;60.30;;;;;;4992830;28;20442;-66
2022/01/01 07:09:00;;;;;;;14.43;9.50;;;20.70;60.20;;;;;;4992195;28;20057;-66
2022/01/01 07:11:25;;;;;;;12.32;9.00;;;20.70;60.20;;;;;;4991569;28;20043;-66
2022/01/01 07:13:51;;;;;;;12.52;8.82;;;20.80;60.30;;;;;;4991827;28;20046;-66
2022/01/01 07:16:17;;;;;;;12.60;8.88;;;20.80;60.20;;;;;;4992987;28;20046;-66
2022/01/01 07:18:43;;;;;;;14.13;9.10;;;20.80;60.20;;;;;;5007643;28;20125;-65
2022/01/01 07:21:08;;;;;;;13.43;9.43;;;20.80;60.20;;;;;;4992158;28;20126;-65
2022/01/01 07:23:34;;;;;;;13.75;9.48;;;20.80;60.20;;;;;;4992537;28;20048;-65
2022/01/01 07:25:59;;;;;;;11.98;8.75;;;20.80;60.20;;;;;;5007814;28;20992;-66
2022/01/01 07:28:25;;;;;;;13.88;9.27;;;20.80;60.20;;;;;;4994806;28;20073;-66
2022/01/01 07:30:50;;;;;;;12.85;8.65;;;20.80;60.20;;;;;;4996034;28;20039;-66
2022/01/01 07:33:16;;;;;;;12.65;8.50;;;20.80;60.20;;;;;;4996045;28;20462;-66
2022/01/01 07:35:42;;;;;;;13.95;9.35;;;20.80;60.10;;;;;;4994749;28;20046;-66
2022/01/01 07:38:08;;;;;;;13.20;8.88;;;20.90;60.20;;;;;;4996159;28;20387;-66
2022/01/01 07:40:34;;;;;;;12.88;8.95;;;20.90;60.20;;;;;;4995978;28;20121;-66
2022/01/01 07:43:10;;;;;;;13.05;8.60;;;20.80;60.10;;;;;;4995066;28;20043;-66
2022/01/01 07:45:35;;;;;;;12.30;8.38;;;20.90;60.20;;;;;;5010786;28;20054;-66
2022/01/01 07:48:01;;;;;;;11.25;7.78;;;20.90;60.10;;;;;;5010482;28;20038;-66
2022/01/01 07:50:26;;;;;;;12.18;8.00;;;20.90;60.10;;;;;;4995273;28;20042;-66
2022/01/01 07:52:52;;;;;;;13.38;8.70;;;20.90;60.10;;;;;;4995159;28;20061;-66
2022/01/01 07:55:17;;;;;;;12.23;7.93;;;20.90;60.10;;;;;;4995608;28;20046;-66
2022/01/01 07:57:43;;;;;;;12.38;7.68;;;20.90;60.10;;;;;;5009686;28;20050;-66
2022/01/01 08:00:09;;;;;;;12.40;8.13;;;20.90;60.10;;;;;;4993757;28;20140;-65
2022/01/01 08:02:39;;;;;;;11.57;8.07;;;20.90;60.10;;;;;;4993714;28;20121;-65
2022/01/01 08:05:05;;;;;;;12.60;8.25;;;21.00;60.10;;;;;;4993274;28;20050;-65
2022/01/01 08:07:31;;;;;;;12.93;8.50;;;20.90;60.10;;;;;;4995390;28;20178;-65
2022/01/01 08:09:56;;;;;;;11.57;7.70;;;20.90;60.00;;;;;;5009523;28;20086;-65
2022/01/01 08:12:22;;;;;;;10.10;7.53;;;21.00;60.10;;;;;;4994884;28;20096;-65
2022/01/01 08:14:47;;;;;;;12.60;8.52;;;21.00;60.10;;;;;;4993789;28;20082;-66
2022/01/01 08:17:13;;;;;;;10.65;7.47;;;21.00;60.10;;;;;;4992873;28;20042;-58
2022/01/01 08:19:38;;;;;;;12.98;8.00;;;21.00;60.10;;;;;;4995010;28;20440;-64
2022/01/01 08:22:04;;;;;;;13.57;8.13;;;21.00;60.20;;;;;;4994865;28;20482;-62
2022/01/01 08:24:30;;;;;;;10.40;6.70;;;21.00;60.10;;;;;;4993117;28;20551;-64
2022/01/01 08:26:55;;;;;;;11.38;7.25;;;21.10;60.10;;;;;;4993001;28;20046;-64
2022/01/01 08:29:21;;;;;;;12.45;7.03;;;21.10;60.20;;;;;;4994550;28;20050;-64
2022/01/01 08:31:46;;;;;;;11.85;7.25;;;21.00;60.10;;;;;;4993634;28;20046;-64
2022/01/01 08:34:12;;;;;;;13.63;6.95;;;21.10;60.10;;;;;;4994447;28;20034;-64
2022/01/01 08:36:38;;;;;;;12.93;7.10;;;21.10;60.20;;;;;;4993871;28;20065;-64
2022/01/01 08:39:05;;;;;;;10.98;7.28;;;21.10;60.20;;;;;;4993178;28;20046;-65
2022/01/01 08:41:31;;;;;;;12.07;7.00;;;21.20;60.20;;;;;;5009994;28;20058;-64
2022/01/01 08:43:56;;;;;;;13.18;7.22;;;21.10;60.20;;;;;;5009510;28;20305;-64
2022/01/01 08:46:22;;;;;;;11.02;6.40;;;21.20;60.30;;;;;;4993778;28;20046;-65
2022/01/01 08:48:47;;;;;;;14.95;7.63;;;21.20;60.40;;;;;;4993326;28;20049;-65
2022/01/01 08:51:17;;;;;;;10.75;6.68;;;21.20;60.40;;;;;;5010236;28;20046;-62
2022/01/01 08:53:43;;;;;;;10.35;6.90;;;21.10;60.40;;;;;;5003375;28;20045;-62
2022/01/01 08:56:09;;;;;;;11.18;6.68;;;21.20;60.50;;;;;;5005207;28;20127;-62
2022/01/01 08:58:34;;;;;;;13.07;7.03;;;21.10;60.50;;;;;;5004707;28;20077;-62
2022/01/01 09:01:01;;;;;;;10.60;5.88;;;21.10;60.60;;;;;;5013207;28;20069;-62
2022/01/01 09:03:26;;;;;;;11.73;6.97;;;21.20;61.40;;;;;;5014129;28;20049;-61
2022/01/01 09:05:52;;;;;;;12.82;7.00;;;21.20;60.90;;;;;;5029194;28;20128;-63
2022/01/01 09:08:17;;;;;;;12.15;6.88;;;21.20;61.00;;;;;;5008295;28;20137;-67
2022/01/01 09:10:43;;;;;;;14.30;6.88;;;21.30;61.10;;;;;;5002283;28;20049;-67
2022/01/01 09:13:08;;;;;;;11.50;6.72;;;21.30;61.20;;;;;;5019538;28;20418;-65
2022/01/01 09:15:34;;;;;;;11.75;6.35;;;21.30;61.30;;;;;;5001742;28;20092;-65
2022/01/01 09:17:59;;;;;;;10.02;6.72;;;21.30;61.30;;;;;;5002710;28;20197;-65
2022/01/01 09:20:25;;;;;;;11.02;6.32;;;21.30;61.40;;;;;;5005568;28;20041;-64
2022/01/01 09:22:50;;;;;;;12.20;6.45;;;21.30;61.30;;;;;;5011604;28;20045;-65
2022/01/01 09:25:16;;;;;;;11.27;7.10;;;21.30;61.30;;;;;;5006523;28;20069;-66
2022/01/01 09:27:42;;;;;;;9.27;6.05;;;21.30;61.50;;;;;;5003200;28;20508;-65
2022/01/01 09:30:08;;;;;;;10.60;6.75;;;21.40;61.60;;;;;;5001293;28;20062;-64
2022/01/01 09:32:34;;;;;;;11.18;6.65;;;21.40;61.60;;;;;;5002120;28;20046;-66
2022/01/01 09:35:00;;;;;;;11.07;7.05;;;21.40;61.60;;;;;;5002968;28;20042;-65
2022/01/01 09:37:27;;;;;;;10.35;6.30;;;21.40;61.70;;;;;;5001052;28;20027;-66
2022/01/01 09:39:52;;;;;;;12.93;6.72;;;21.40;61.70;;;;;;5017809;28;20674;-61
2022/01/01 09:42:18;;;;;;;9.77;5.72;;;21.40;61.70;;;;;;5003205;28;20073;-64
2022/01/01 09:44:43;;;;;;;11.75;7.07;;;21.40;61.50;;;;;;4984116;28;20104;-64
2022/01/01 09:47:10;;;;;;;9.23;6.03;;;21.50;61.60;;;;;;5002175;28;20042;-65
2022/01/01 09:49:35;;;;;;;12.65;5.85;;;21.40;61.60;;;;;;5001182;28;20095;-66
2022/01/01 09:52:01;;;;;;;11.00;6.15;;;21.50;61.70;;;;;;5000649;28;20081;-66
2022/01/01 09:54:30;;;;;;;9.57;6.20;;;21.50;61.70;;;;;;5002705;28;20034;-66
2022/01/01 09:56:56;;;;;;;11.18;5.78;;;21.50;61.80;;;;;;5000830;28;20089;-64
2022/01/01 09:59:21;;;;;;;10.25;6.10;;;21.50;61.80;;;;;;4986594;28;20096;-64
2022/01/01 10:01:47;;;;;;;8.88;5.05;;;21.50;61.80;;;;;;5001784;28;20053;-64
2022/01/01 10:04:13;;;;;;;10.20;6.40;;;21.50;61.60;;;;;;5001109;28;20042;-63
2022/01/01 10:06:39;;;;;;;10.57;5.50;;;21.50;61.50;;;;;;4997002;28;20054;-62
2022/01/01 10:09:06;;;;;;;7.88;5.57;;;21.50;61.50;;;;;;4993254;28;20049;-63
2022/01/01 10:11:33;;;;;;;9.13;5.45;;;21.50;61.40;;;;;;4991235;28;20077;-63
2022/01/01 10:13:59;;;;;;;8.70;5.30;;;21.50;61.80;;;;;;4993170;28;20042;-63
2022/01/01 10:16:24;;;;;;;9.27;5.03;;;21.50;61.30;;;;;;4992028;28;20097;-63
2022/01/01 10:18:52;;;;;;;10.57;5.68;;;21.50;61.30;;;;;;4992244;28;20173;-64
2022/01/01 10:21:22;;;;;;;8.65;5.43;;;21.50;61.30;;;;;;4992313;28;20502;-64
2022/01/01 10:23:50;;;;;;;10.38;5.80;;;21.50;61.30;;;;;;4991943;28;20507;-64
2022/01/01 10:29:10;;;;;;;10.00;5.85;;;21.50;61.50;;;;;;4992760;28;20289;-64
2022/01/01 10:31:36;;;;;;;9.57;5.75;;;21.50;61.70;;;;;;4992428;28;20125;-64
2022/01/01 10:34:08;;;;;;;9.52;5.65;;;21.50;61.60;;;;;;4991513;28;20043;-64
2022/01/01 10:36:34;;;;;;;7.85;5.40;;;21.50;61.70;;;;;;4991718;28;20069;-63
2022/01/01 10:39:12;;;;;;;9.07;4.90;;;21.60;62.40;;;;;;4974435;28;20051;-66
2022/01/01 10:41:46;;;;;;;11.30;5.80;;;21.60;61.70;;;;;;4993056;28;20058;-68
2022/01/01 10:44:12;;;;;;;10.75;5.35;;;21.60;61.60;;;;;;4992989;28;20129;-63
2022/01/01 10:46:39;;;;;;;8.63;5.13;;;21.60;61.70;;;;;;4990914;28;20133;-63
2022/01/01 10:52:27;;;;;;;9.77;5.05;;;21.60;62.00;;;;;;4990677;28;20066;-63
2022/01/01 10:54:57;;;;;;;9.20;4.95;;;21.60;61.90;;;;;;4991189;28;20042;-64
2022/01/01 10:57:28;;;;;;;8.65;5.13;;;21.60;62.00;;;;;;4992637;28;20050;-64
2022/01/01 11:00:26;;;;;;;7.13;4.90;;;21.60;62.10;;;;;;4991817;28;20046;-65
2022/01/01 11:02:56;;;;;;;10.05;4.78;;;21.60;62.10;;;;;;4971942;28;20086;-65
2022/01/01 11:05:40;;;;;;;6.88;4.43;;;21.60;62.20;;;;;;4976940;28;20105;-65
2022/01/01 11:08:07;;;;;;;8.18;4.47;;;21.60;62.20;;;;;;4975889;28;20066;-65
2022/01/01 11:10:33;;;;;;;8.38;4.90;;;21.60;62.20;;;;;;4975267;28;20478;-64
2022/01/01 11:12:59;;;;;;;7.43;4.38;;;21.60;62.20;;;;;;4976031;28;20051;-64
2022/01/01 11:15:25;;;;;;;7.78;4.57;;;21.60;62.20;;;;;;4976587;28;20050;-64
2022/01/01 11:17:51;;;;;;;8.30;4.93;;;21.60;62.70;;;;;;4987112;28;20080;-65
2022/01/01 11:20:17;;;;;;;6.60;4.20;;;21.60;62.10;;;;;;4994943;28;20121;-65
2022/01/01 11:22:43;;;;;;;6.15;3.83;;;21.60;62.10;;;;;;5017462;28;20061;-65
2022/01/01 11:25:09;;;;;;;10.05;4.78;;;21.60;62.20;;;;;;5003106;28;20058;-64
2022/01/01 11:27:34;;;;;;;7.07;4.43;;;21.60;62.10;;;;;;4990180;28;20042;-65
2022/01/01 11:30:02;;;;;;;7.30;4.40;;;21.60;62.00;;;;;;4994792;28;20887;-64
2022/01/01 11:32:36;;;;;;;10.93;4.55;;;21.50;62.00;;;;;;4994285;28;20042;-65
2022/01/01 11:35:01;;;;;;;6.70;4.22;;;21.60;62.20;;;;;;4995865;28;20046;-66
2022/01/01 11:37:28;;;;;;;7.15;3.88;;;21.60;62.20;;;;;;4994971;28;20045;-66
2022/01/01 11:39:54;;;;;;;8.77;4.47;;;21.60;62.20;;;;;;4996128;28;20053;-66
2022/01/01 11:42:20;;;;;;;7.00;3.97;;;21.50;62.10;;;;;;4997171;28;20053;-65
2022/01/01 11:44:50;;;;;;;7.57;4.40;;;21.60;62.20;;;;;;4994526;28;20050;-66
2022/01/01 11:47:19;;;;;;;6.97;4.18;;;21.60;62.30;;;;;;4998619;28;20088;-67
2022/01/01 11:49:44;;;;;;;;;;;21.50;62.30;;;;;;4994112;28;20049;-68
2022/01/01 11:52:10;;;;;;;8.75;4.22;;;21.60;62.20;;;;;;4993820;28;19925;-64
2022/01/01 11:54:36;;;;;;;6.75;4.03;;;21.50;62.20;;;;;;4979318;28;20039;-64
2022/01/01 11:57:27;;;;;;;7.88;4.18;;;21.50;62.20;;;;;;4973430;28;20046;-64
2022/01/01 11:59:58;;;;;;;7.20;3.78;;;21.50;62.10;;;;;;4987638;28;20050;-64
2022/01/01 12:02:24;;;;;;;7.55;3.78;;;21.50;62.10;;;;;;4993974;28;20561;-64
2022/01/01 12:04:54;;;;;;;8.73;4.57;;;21.50;62.10;;;;;;4994727;28;20173;-64
2022/01/01 12:07:19;;;;;;;6.20;3.63;;;21.50;62.10;;;;;;5009887;28;20129;-64
2022/01/01 12:12:51;;;;;;;7.35;3.70;;;21.50;62.10;;;;;;4993738;28;20054;-63
2022/01/01 12:15:20;;;;;;;6.88;3.50;;;21.50;62.00;;;;;;4994191;28;20061;-63
2022/01/01 12:17:57;;;;;;;7.43;3.45;;;21.50;62.10;;;;;;5008252;28;20441;-62
2022/01/01 12:20:25;;;;;;;6.10;3.70;;;21.40;61.90;;;;;;4994297;28;20121;-62
2022/01/01 12:22:51;;;;;;;7.72;4.18;;;21.50;61.90;;;;;;5009885;28;20057;-62
2022/01/01 12:25:17;;;;;;;7.40;3.95;;;21.40;61.70;;;;;;4994142;28;20038;-62
2022/01/01 12:27:47;;;;;;;5.88;3.53;;;21.40;61.60;;;;;;4994769;28;20080;-62
2022/01/01 12:30:13;;;;;;;8.85;3.97;;;21.40;61.50;;;;;;5009124;28;20097;-65
2022/01/01 12:32:39;;;;;;;8.02;3.65;;;21.40;61.60;;;;;;4995270;28;20042;-63
2022/01/01 12:35:09;;;;;;;6.60;3.35;;;21.40;61.60;;;;;;4994912;28;20050;-61
2022/01/01 12:37:36;;;;;;;6.72;3.40;;;21.30;61.50;;;;;;4991890;28;20474;-62
2022/01/01 12:40:07;;;;;;;8.15;3.53;;;21.40;61.60;;;;;;4994131;28;20521;-62
2022/01/01 12:42:33;;;;;;;9.68;3.58;;;21.40;61.60;;;;;;4993904;28;20069;-62
2022/01/01 12:45:06;;;;;;;10.23;3.25;;;21.40;61.60;;;;;;4993893;28;20486;-62
2022/01/01 12:47:32;;;;;;;6.82;3.60;;;21.30;61.50;;;;;;4995086;28;20398;-62